Qu'Appelle, Canada
Current Conditions -  °F | °C
As of 12:00 AM on Wednesday 28 Jan 2015 (Local Time) from CYQR Reporting Station
Scattered Clouds Scattered Clouds  
Wind Chill: -7°   Ceiling: Unl
Heat Index: -3°   Visibility: 15mi
Dew Point: -3°   Wind: 6mph
Humidity: 100%   Direction: 80°E
Pressure: 29.79"   Gusts: NA
Location:  50.53°N, 103.87°W
Report Text: CYQR 280600Z 08005KT 15SM SCT200 M03/M03 A2979 RMK CI4 SLP117
Loading
Personal Weather Stations






























Interactive Weather Map New forecast layout! Learn more

10-Day Weather Forecast

Advertisements
Track Severe Weather on mobile